Time;durP1;ratioP1;P1;durP2;ratioP2;P2;SDS_P1;SDS_P2;PMS_P1;PMS_P2;Temp;Humidity;BMP_temperature;BMP_pressure;BME280_temperature;BME280_humidity;BME280_pressure;Samples;Min_cycle;Max_cycle;Signal;HPM_P1;HPM_P2
2022/08/14 00:00:00;;;;;;;;;;;;;;;;;;1030092;28;2043;-48
2022/08/14 00:00:30;;;;;;;;;;;;;;;;;;1031165;28;2634;-46
2022/08/14 00:01:10;;;;;;;;;;;;;;;;;;1030449;28;1845;-47
2022/08/14 00:01:41;;;;;;;;;;;;;;;;;;1030844;28;1976;-49
2022/08/14 00:02:11;;;;;;;;;;;;;;;;;;1029874;28;3230;-46
2022/08/14 00:02:41;;;;;;;;;;;;;;;;;;1030491;28;1713;-48
2022/08/14 00:03:22;;;;;;;;;;;;;;;;;;1029807;28;1728;-48
2022/08/14 00:03:52;;;;;;;;;;;;;;;;;;1029899;28;1624;-46
2022/08/14 00:04:22;;;;;;;;;;;;;;;;;;1030125;28;1973;-49
2022/08/14 00:04:52;;;;;;;;;;;;;;;;;;1030573;28;1829;-47
2022/08/14 00:05:23;;;;;;;;;;;;;;;;;;1029485;28;3829;-51
2022/08/14 00:05:54;;;;;;;;;;;;;;;;;;1029784;28;2197;-45
2022/08/14 00:06:24;;;;;;;;;;;;;;;;;;1029493;28;2504;-47
2022/08/14 00:06:54;;;;;;;;;;;;;;;;;;1030732;28;1673;-45
2022/08/14 00:07:26;;;;;;;;;;;;;;;;;;1031219;28;1689;-46
2022/08/14 00:07:56;;;;;;;;;;;;;;;;;;1030700;28;1606;-48
2022/08/14 00:08:27;;;;;;;;;;;;;;;;;;1029496;28;3129;-50
2022/08/14 00:08:57;;;;;;;;;;;;;;;;;;1030417;28;3256;-48
2022/08/14 00:09:27;;;;;;;;;;;;;;;;;;1030522;28;1727;-47
2022/08/14 00:09:58;;;;;;;;;;;;;;;;;;1030295;28;1857;-47
2022/08/14 00:10:28;;;;;;;;;;;;;;;;;;1031051;28;1825;-46
2022/08/14 00:10:58;;;;;;;;;;;;;;;;;;1030532;28;2036;-46
2022/08/14 00:11:29;;;;;;;;;;;;;;;;;;1030720;28;1613;-47
2022/08/14 00:11:59;;;;;;;;;;;;;;;;;;1029001;28;3213;-44
2022/08/14 00:12:31;;;;;;;;;;;;;;;;;;1030894;28;1678;-49
2022/08/14 00:13:02;;;;;;;;;;;;;;;;;;1030858;28;1672;-47
2022/08/14 00:13:32;;;;;;;;;;;;;;;;;;1030180;28;1906;-47
2022/08/14 00:14:03;;;;;;;;;;;;;;;;;;1030436;28;1899;-46
2022/08/14 00:14:33;;;;;;;;;;;;;;;;;;1030358;28;1578;-46
2022/08/14 00:15:06;;;;;;;;;;;;;;;;;;1031047;28;2330;-45
2022/08/14 00:15:38;;;;;;;;;;;;;;;;;;1027253;28;3820;-48
2022/08/14 00:16:13;;;;;;;;;;;;;;;;;;1029314;28;4038;-47
2022/08/14 00:16:43;;;;;;;;;;;;;;;;;;1030250;28;4052;-47
2022/08/14 00:17:13;;;;;;;;;;;;;;;;;;1030167;28;2303;-45
2022/08/14 00:17:44;;;;;;;;;;;;;;;;;;1030092;28;2287;-46
2022/08/14 00:18:19;;;;;;;;;;;;;;;;;;1030861;28;2266;-46
2022/08/14 00:18:56;;;;;;;;;;;;;;;;;;1029384;28;1903;-45
2022/08/14 00:19:26;;;;;;;;;;;;;;;;;;1029967;28;1702;-45
2022/08/14 00:19:56;;;;;;;;;;;;;;;;;;1030566;28;1620;-48
2022/08/14 00:20:28;;;;;;;;;;;;;;;;;;1030420;28;2069;-48
2022/08/14 00:20:59;;;;;;;;;;;;;;;;;;1033785;28;1637;-47
2022/08/14 00:21:29;;;;;;;;;;;;;;;;;;1034502;28;1613;-46
2022/08/14 00:22:00;;;;;;;;;;;;;;;;;;1031597;28;2599;-47
2022/08/14 00:22:30;;;;;;;;;;;;;;;;;;1033423;28;2487;-46
2022/08/14 00:23:01;;;;;;;;;;;;;;;;;;1030885;28;1889;-46
2022/08/14 00:23:31;;;;;;;;;;;;;;;;;;1030342;28;2169;-48
2022/08/14 00:24:03;;;;;;;;;;;;;;;;;;1031008;28;1349;-49
2022/08/14 00:24:33;;;;;;;;;;;;;;;;;;1030263;28;1913;-50
2022/08/14 00:25:04;;;;;;;;;;;;;;;;;;1030787;28;2004;-48
2022/08/14 00:25:35;;;;;;;;;;;;;;;;;;1030754;28;1743;-47
2022/08/14 00:26:05;;;;;;;;;;;;;;;;;;1029625;28;3033;-47
2022/08/14 00:26:35;;;;;;;;;;;;;;;;;;1029700;28;1928;-47
2022/08/14 00:27:05;;;;;;;;;;;;;;;;;;1030950;28;1682;-45
2022/08/14 00:27:36;;;;;;;;;;;;;;;;;;1030348;28;2049;-47
2022/08/14 00:28:08;;;;;;;;;;;;;;;;;;1029765;28;3161;-47
2022/08/14 00:28:39;;;;;;;;;;;;;;;;;;1030445;28;3199;-47
2022/08/14 00:29:09;;;;;;;;;;;;;;;;;;1030401;28;1644;-45
2022/08/14 00:29:39;;;;;;;;;;;;;;;;;;1030451;28;1633;-46
2022/08/14 00:30:10;;;;;;;;;;;;;;;;;;1030291;28;2157;-45
2022/08/14 00:30:41;;;;;;;;;;;;;;;;;;1030949;28;1699;-46
2022/08/14 00:31:13;;;;;;;;;;;;;;;;;;1030023;28;1732;-48
2022/08/14 00:31:43;;;;;;;;;;;;;;;;;;1030113;28;3027;-50
2022/08/14 00:32:14;;;;;;;;;;;;;;;;;;1030633;28;3039;-45
2022/08/14 00:32:45;;;;;;;;;;;;;;;;;;1029227;28;2303;-44
2022/08/14 00:33:15;;;;;;;;;;;;;;;;;;1030480;28;1854;-46
2022/08/14 00:33:45;;;;;;;;;;;;;;;;;;1030398;28;1649;-45
2022/08/14 00:34:15;;;;;;;;;;;;;;;;;;1030486;28;1955;-46
2022/08/14 00:34:46;;;;;;;;;;;;;;;;;;1030326;28;1415;-46
2022/08/14 00:35:16;;;;;;;;;;;;;;;;;;1030806;28;1710;-46
2022/08/14 00:35:47;;;;;;;;;;;;;;;;;;1030157;28;1915;-47
2022/08/14 00:36:17;;;;;;;;;;;;;;;;;;1030872;28;2098;-46
2022/08/14 00:36:47;;;;;;;;;;;;;;;;;;1029844;28;1701;-49
2022/08/14 00:37:18;;;;;;;;;;;;;;;;;;1030036;28;1787;-49
2022/08/14 00:37:56;;;;;;;;;;;;;;;;;;1030430;28;1606;-47
2022/08/14 00:38:26;;;;;;;;;;;;;;;;;;1030045;28;2025;-45
2022/08/14 00:38:56;;;;;;;;;;;;;;;;;;1029825;28;2002;-47
2022/08/14 00:39:33;;;;;;;;;;;;;;;;;;1030315;28;1736;-45
2022/08/14 00:40:18;;;;;;;;;;;;;;;;;;1030213;28;1618;-49
2022/08/14 00:40:49;;;;;;;;;;;;;;;;;;1030252;28;1664;-50
2022/08/14 00:41:25;;;;;;;;;;;;;;;;;;1030598;28;1805;-48
2022/08/14 00:41:56;;;;;;;;;;;;;;;;;;1029569;28;3374;-49
2022/08/14 00:42:27;;;;;;;;;;;;;;;;;;1032679;28;1788;-47
2022/08/14 00:42:57;;;;;;;;;;;;;;;;;;1034084;28;1657;-47
2022/08/14 00:43:28;;;;;;;;;;;;;;;;;;1030324;28;2760;-48
2022/08/14 00:43:58;;;;;;;;;;;;;;;;;;1029781;28;1842;-47
2022/08/14 00:44:29;;;;;;;;;;;;;;;;;;1030379;28;1691;-47
2022/08/14 00:44:59;;;;;;;;;;;;;;;;;;1029745;28;1670;-45
2022/08/14 00:45:29;;;;;;;;;;;;;;;;;;1030709;28;2020;-47
2022/08/14 00:46:04;;;;;;;;;;;;;;;;;;1030484;28;2095;-46
2022/08/14 00:46:37;;;;;;;;;;;;;;;;;;1030183;28;2001;-48
2022/08/14 00:47:08;;;;;;;;;;;;;;;;;;1033494;28;2145;-47
2022/08/14 00:47:38;;;;;;;;;;;;;;;;;;1033996;28;1711;-49
2022/08/14 00:48:09;;;;;;;;;;;;;;;;;;1033417;28;2035;-45
2022/08/14 00:48:39;;;;;;;;;;;;;;;;;;1034169;28;2026;-45
2022/08/14 00:49:11;;;;;;;;;;;;;;;;;;1030110;28;1711;-48
2022/08/14 00:49:42;;;;;;;;;;;;;;;;;;1030759;28;2004;-45
2022/08/14 00:50:14;;;;;;;;;;;;;;;;;;1030078;28;1644;-47
2022/08/14 00:50:44;;;;;;;;;;;;;;;;;;1029952;28;3923;-49
2022/08/14 00:51:15;;;;;;;;;;;;;;;;;;1030433;28;1765;-47
2022/08/14 00:51:45;;;;;;;;;;;;;;;;;;1029936;28;2148;-47
2022/08/14 00:52:16;;;;;;;;;;;;;;;;;;1029633;28;3201;-48
2022/08/14 00:52:48;;;;;;;;;;;;;;;;;;1029250;28;3928;-46
2022/08/14 00:53:18;;;;;;;;;;;;;;;;;;1030627;28;1648;-45
2022/08/14 00:53:49;;;;;;;;;;;;;;;;;;1030409;28;2189;-46
2022/08/14 00:54:19;;;;;;;;;;;;;;;;;;1030465;28;1692;-45
2022/08/14 00:54:53;;;;;;;;;;;;;;;;;;1030484;28;1756;-45
2022/08/14 00:55:23;;;;;;;;;;;;;;;;;;1029653;28;1879;-47
2022/08/14 00:55:56;;;;;;;;;;;;;;;;;;1030963;28;1578;-49
2022/08/14 00:56:33;;;;;;;;;;;;;;;;;;1029526;28;1758;-47
2022/08/14 00:57:03;;;;;;;;;;;;;;;;;;1030679;28;1992;-48
2022/08/14 00:57:34;;;;;;;;;;;;;;;;;;1030544;28;1972;-49
2022/08/14 00:58:55;;;;;;;;;;;;;;;;;;1030438;28;2002;-47
2022/08/14 00:59:27;;;;;;;;;;;;;;;;;;1030194;28;1677;-46
2022/08/14 00:59:57;;;;;;;;;;;;;;;;;;1030573;28;1639;-47
2022/08/14 01:00:28;;;;;;;;;;;;;;;;;;1033731;28;2132;-47
2022/08/14 01:01:02;;;;;;;;;;;;;;;;;;1033742;28;1740;-47
2022/08/14 01:01:35;;;;;;;;;;;;;;;;;;1033542;28;1680;-47
2022/08/14 01:02:05;;;;;;;;;;;;;;;;;;1031991;28;3262;-46
2022/08/14 01:02:36;;;;;;;;;;;;;;;;;;1028744;28;3750;-47
2022/08/14 01:03:07;;;;;;;;;;;;;;;;;;1030615;28;2196;-47
2022/08/14 01:03:38;;;;;;;;;;;;;;;;;;1030075;28;1619;-45
2022/08/14 01:04:09;;;;;;;;;;;;;;;;;;1030475;28;1995;-46
2022/08/14 01:04:40;;;;;;;;;;;;;;;;;;1031109;28;1614;-50
2022/08/14 01:05:22;;;;;;;;;;;;;;;;;;1034003;28;1394;-47
2022/08/14 01:05:52;;;;;;;;;;;;;;;;;;1034516;28;1414;-47
2022/08/14 01:06:24;;;;;;;;;;;;;;;;;;1032878;28;2253;-49
2022/08/14 01:06:54;;;;;;;;;;;;;;;;;;1032992;28;1697;-48
2022/08/14 01:07:25;;;;;;;;;;;;;;;;;;1030470;28;1827;-46
2022/08/14 01:07:59;;;;;;;;;;;;;;;;;;1029517;28;2099;-48
2022/08/14 01:08:30;;;;;;;;;;;;;;;;;;1030157;28;1412;-49
2022/08/14 01:09:01;;;;;;;;;;;;;;;;;;1030364;28;2098;-46
2022/08/14 01:09:32;;;;;;;;;;;;;;;;;;1029096;28;2126;-46
2022/08/14 01:10:03;;;;;;;;;;;;;;;;;;1029903;28;1861;-47
2022/08/14 01:10:52;;;;;;;;;;;;;;;;;;1029707;28;1686;-46
2022/08/14 01:11:22;;;;;;;;;;;;;;;;;;1029840;28;1387;-44
2022/08/14 01:11:53;;;;;;;;;;;;;;;;;;1029113;28;3402;-46
2022/08/14 01:12:24;;;;;;;;;;;;;;;;;;1028468;28;4300;-50
2022/08/14 01:12:54;;;;;;;;;;;;;;;;;;1029093;28;3888;-47
2022/08/14 01:13:35;;;;;;;;;;;;;;;;;;1030199;28;1378;-46
2022/08/14 01:14:06;;;;;;;;;;;;;;;;;;1029335;28;1858;-47
2022/08/14 01:14:36;;;;;;;;;;;;;;;;;;1030704;28;1958;-44
2022/08/14 01:15:06;;;;;;;;;;;;;;;;;;1029822;28;1825;-48
2022/08/14 01:15:37;;;;;;;;;;;;;;;;;;1031007;28;1661;-48
2022/08/14 01:16:08;;;;;;;;;;;;;;;;;;1030030;28;1673;-45
2022/08/14 01:16:39;;;;;;;;;;;;;;;;;;1029557;28;1652;-45
2022/08/14 01:17:10;;;;;;;;;;;;;;;;;;1030153;28;1741;-48
2022/08/14 01:21:08;;;;;;;;;;;;;;;;;;1029951;28;1583;-46
2022/08/14 01:21:39;;;;;;;;;;;;;;;;;;1029901;28;1277;-48
2022/08/14 01:22:10;;;;;;;;;;;;;;;;;;1028849;28;3029;-47
2022/08/14 01:22:40;;;;;;;;;;;;;;;;;;1030217;28;1673;-47
2022/08/14 01:23:12;;;;;;;;;;;;;;;;;;1030505;28;1593;-47
2022/08/14 01:23:44;;;;;;;;;;;;;;;;;;1029865;28;1976;-48
2022/08/14 01:24:14;;;;;;;;;;;;;;;;;;1030724;28;1523;-48
2022/08/14 01:24:45;;;;;;;;;;;;;;;;;;1029878;28;1969;-48
2022/08/14 01:25:15;;;;;;;;;;;;;;;;;;1030422;28;1841;-46
2022/08/14 01:25:47;;;;;;;;;;;;;;;;;;1030044;28;1946;-45
2022/08/14 01:26:22;;;;;;;;;;;;;;;;;;1029656;28;2166;-46
2022/08/14 01:26:52;;;;;;;;;;;;;;;;;;1029978;28;1817;-49
2022/08/14 01:27:24;;;;;;;;;;;;;;;;;;1029915;28;1581;-45
2022/08/14 01:27:57;;;;;;;;;;;;;;;;;;1030208;28;1621;-47
2022/08/14 01:28:30;;;;;;;;;;;;;;;;;;1029653;28;2376;-48
2022/08/14 01:29:00;;;;;;;;;;;;;;;;;;1029604;28;1695;-46
2022/08/14 01:29:36;;;;;;;;;;;;;;;;;;1030548;28;1215;-47
2022/08/14 01:30:07;;;;;;;;;;;;;;;;;;1030171;28;2052;-45
2022/08/14 01:30:38;;;;;;;;;;;;;;;;;;1029962;28;2018;-47
2022/08/14 01:31:14;;;;;;;;;;;;;;;;;;1029772;28;1686;-47
2022/08/14 01:31:45;;;;;;;;;;;;;;;;;;1029479;28;1598;-49
2022/08/14 01:32:17;;;;;;;;;;;;;;;;;;1027577;28;3976;-50
2022/08/14 01:32:49;;;;;;;;;;;;;;;;;;1028643;28;2538;-47
2022/08/14 01:33:20;;;;;;;;;;;;;;;;;;1029294;28;3385;-45
2022/08/14 01:33:52;;;;;;;;;;;;;;;;;;1033095;28;1664;-47
2022/08/14 01:34:25;;;;;;;;;;;;;;;;;;1028159;28;3872;-46
2022/08/14 01:34:55;;;;;;;;;;;;;;;;;;1029622;28;3368;-45
2022/08/14 01:35:27;;;;;;;;;;;;;;;;;;1030073;28;1913;-47
2022/08/14 01:35:59;;;;;;;;;;;;;;;;;;1030255;28;2162;-46
2022/08/14 01:36:35;;;;;;;;;;;;;;;;;;1029489;28;2512;-46
2022/08/14 01:37:06;;;;;;;;;;;;;;;;;;1029498;28;3200;-48
2022/08/14 01:37:36;;;;;;;;;;;;;;;;;;1033263;28;1611;-45
2022/08/14 01:38:08;;;;;;;;;;;;;;;;;;1033429;28;2234;-47
2022/08/14 01:38:41;;;;;;;;;;;;;;;;;;1033417;28;2106;-46
2022/08/14 01:39:15;;;;;;;;;;;;;;;;;;1032837;28;1831;-44
2022/08/14 01:40:00;;;;;;;;;;;;;;;;;;1029824;28;1393;-47
2022/08/14 01:40:37;;;;;;;;;;;;;;;;;;1029796;28;3390;-46
2022/08/14 01:41:09;;;;;;;;;;;;;;;;;;1030255;28;1730;-46
2022/08/14 01:41:48;;;;;;;;;;;;;;;;;;1033703;28;1872;-44
2022/08/14 01:42:19;;;;;;;;;;;;;;;;;;1032072;28;4318;-47
2022/08/14 01:42:49;;;;;;;;;;;;;;;;;;1032870;28;1671;-44
2022/08/14 01:43:19;;;;;;;;;;;;;;;;;;1032241;28;1685;-45
2022/08/14 01:43:52;;;;;;;;;;;;;;;;;;1030065;28;1783;-48
2022/08/14 01:44:30;;;;;;;;;;;;;;;;;;1029922;28;1819;-45
2022/08/14 01:45:00;;;;;;;;;;;;;;;;;;1033121;28;1407;-46
2022/08/14 01:45:30;;;;;;;;;;;;;;;;;;1033283;28;2106;-48
2022/08/14 01:46:01;;;;;;;;;;;;;;;;;;1033304;28;1956;-49
2022/08/14 01:46:33;;;;;;;;;;;;;;;;;;1033897;28;1703;-45
2022/08/14 01:47:13;;;;;;;;;;;;;;;;;;1033042;28;1650;-45
2022/08/14 01:47:43;;;;;;;;;;;;;;;;;;1033253;28;1271;-46
2022/08/14 01:48:14;;;;;;;;;;;;;;;;;;1032266;28;2742;-48
2022/08/14 01:48:45;;;;;;;;;;;;;;;;;;1032399;28;2895;-49
2022/08/14 01:49:16;;;;;;;;;;;;;;;;;;1029913;28;1724;-44
2022/08/14 01:49:48;;;;;;;;;;;;;;;;;;1029827;28;2374;-47
2022/08/14 01:50:19;;;;;;;;;;;;;;;;;;1033240;28;1459;-47
2022/08/14 01:50:49;;;;;;;;;;;;;;;;;;1033504;28;2780;-45
2022/08/14 01:51:23;;;;;;;;;;;;;;;;;;1033367;28;1690;-46
2022/08/14 01:51:55;;;;;;;;;;;;;;;;;;1033372;28;1918;-49
2022/08/14 01:52:26;;;;;;;;;;;;;;;;;;1028669;28;3490;-47
2022/08/14 01:52:56;;;;;;;;;;;;;;;;;;1029834;28;1445;-45
2022/08/14 01:53:27;;;;;;;;;;;;;;;;;;1030081;28;2243;-46
2022/08/14 01:53:59;;;;;;;;;;;;;;;;;;1029518;28;1775;-49
2022/08/14 01:54:29;;;;;;;;;;;;;;;;;;1029651;28;3829;-45
2022/08/14 01:55:00;;;;;;;;;;;;;;;;;;1029973;28;1679;-45
2022/08/14 01:55:30;;;;;;;;;;;;;;;;;;1029489;28;1680;-46
2022/08/14 01:56:02;;;;;;;;;;;;;;;;;;1030050;28;1702;-48
2022/08/14 01:56:39;;;;;;;;;;;;;;;;;;1029480;28;2214;-46
2022/08/14 01:57:10;;;;;;;;;;;;;;;;;;1029977;28;1393;-47
2022/08/14 01:57:42;;;;;;;;;;;;;;;;;;1030050;28;1608;-45
2022/08/14 01:58:14;;;;;;;;;;;;;;;;;;1029625;28;2219;-45
2022/08/14 01:58:48;;;;;;;;;;;;;;;;;;1030376;28;1694;-47
2022/08/14 01:59:18;;;;;;;;;;;;;;;;;;1030856;28;1673;-46
2022/08/14 01:59:49;;;;;;;;;;;;;;;;;;1028696;28;3172;-47
2022/08/14 02:00:19;;;;;;;;;;;;;;;;;;1033836;28;3456;-47
2022/08/14 02:00:52;;;;;;;;;;;;;;;;;;1033203;28;1734;-47
2022/08/14 02:01:23;;;;;;;;;;;;;;;;;;1033627;28;1598;-47
2022/08/14 02:01:55;;;;;;;;;;;;;;;;;;1033340;28;1785;-48
2022/08/14 02:02:26;;;;;;;;;;;;;;;;;;1028782;28;3877;-47
2022/08/14 02:02:57;;;;;;;;;;;;;;;;;;1029524;28;1615;-48
2022/08/14 02:03:34;;;;;;;;;;;;;;;;;;1028747;28;2823;-46
2022/08/14 02:04:04;;;;;;;;;;;;;;;;;;1032820;28;1857;-47
2022/08/14 02:04:34;;;;;;;;;;;;;;;;;;1033858;28;1609;-48
2022/08/14 02:05:07;;;;;;;;;;;;;;;;;;1033139;28;2053;-46
2022/08/14 02:05:37;;;;;;;;;;;;;;;;;;1033742;28;2005;-46
2022/08/14 02:06:10;;;;;;;;;;;;;;;;;;1034368;28;1382;-47
2022/08/14 02:06:40;;;;;;;;;;;;;;;;;;1032975;28;1603;-47
2022/08/14 02:07:11;;;;;;;;;;;;;;;;;;1030422;28;1687;-46
2022/08/14 02:07:42;;;;;;;;;;;;;;;;;;1029183;28;1999;-47
2022/08/14 02:08:13;;;;;;;;;;;;;;;;;;1029142;28;1889;-46
2022/08/14 02:08:43;;;;;;;;;;;;;;;;;;1029719;28;1591;-46
2022/08/14 02:09:13;;;;;;;;;;;;;;;;;;1029944;28;1609;-46
2022/08/14 02:09:44;;;;;;;;;;;;;;;;;;1029981;28;1728;-48
2022/08/14 02:10:14;;;;;;;;;;;;;;;;;;1030368;28;2088;-48
2022/08/14 02:11:15;;;;;;;;;;;;;;;;;;1029570;28;1697;-44
2022/08/14 02:11:35;;;;;;;;;;;;;;;;;;1029922;28;1729;-45
2022/08/14 02:12:06;;;;;;;;;;;;;;;;;;1028935;28;3367;-46
2022/08/14 02:12:36;;;;;;;;;;;;;;;;;;1029155;28;2938;-50
2022/08/14 02:13:09;;;;;;;;;;;;;;;;;;1029527;28;1831;-49
2022/08/14 02:13:39;;;;;;;;;;;;;;;;;;1030373;28;1371;-48
2022/08/14 02:14:11;;;;;;;;;;;;;;;;;;1028431;28;2227;-48
2022/08/14 02:14:42;;;;;;;;;;;;;;;;;;1030657;28;1677;-45
2022/08/14 02:15:13;;;;;;;;;;;;;;;;;;1029896;28;1646;-47
2022/08/14 02:15:44;;;;;;;;;;;;;;;;;;1030563;28;1300;-48
2022/08/14 02:16:19;;;;;;;;;;;;;;;;;;1029687;28;1639;-46
2022/08/14 02:16:53;;;;;;;;;;;;;;;;;;1029687;28;1665;-48
2022/08/14 02:17:23;;;;;;;;;;;;;;;;;;1029495;28;1616;-48
2022/08/14 02:17:53;;;;;;;;;;;;;;;;;;1030244;28;1714;-45
2022/08/14 02:18:23;;;;;;;;;;;;;;;;;;1029059;28;2254;-48
2022/08/14 02:18:55;;;;;;;;;;;;;;;;;;1030251;28;1788;-48
2022/08/14 02:19:26;;;;;;;;;;;;;;;;;;1033007;28;1953;-47
2022/08/14 02:19:57;;;;;;;;;;;;;;;;;;1033227;28;2688;-46
2022/08/14 02:20:28;;;;;;;;;;;;;;;;;;1033516;28;2601;-44
2022/08/14 02:20:58;;;;;;;;;;;;;;;;;;1032862;28;1549;-50
2022/08/14 02:21:31;;;;;;;;;;;;;;;;;;1032154;28;3736;-45
2022/08/14 02:22:02;;;;;;;;;;;;;;;;;;1030473;28;1763;-45
2022/08/14 02:22:33;;;;;;;;;;;;;;;;;;1029993;28;3347;-50
2022/08/14 02:23:03;;;;;;;;;;;;;;;;;;1030663;28;1673;-45
2022/08/14 02:23:33;;;;;;;;;;;;;;;;;;1028980;28;3734;-50
2022/08/14 02:24:04;;;;;;;;;;;;;;;;;;1030152;28;1765;-46
2022/08/14 02:24:36;;;;;;;;;;;;;;;;;;1029940;28;2163;-45
2022/08/14 02:25:06;;;;;;;;;;;;;;;;;;1029534;28;1839;-47
2022/08/14 02:25:37;;;;;;;;;;;;;;;;;;1030208;28;2231;-46
2022/08/14 02:26:17;;;;;;;;;;;;;;;;;;1029611;28;1311;-50
2022/08/14 02:26:49;;;;;;;;;;;;;;;;;;1033961;28;1624;-44
2022/08/14 02:27:20;;;;;;;;;;;;;;;;;;1032440;28;1791;-48
2022/08/14 02:27:55;;;;;;;;;;;;;;;;;;1034234;28;1677;-44
2022/08/14 02:28:25;;;;;;;;;;;;;;;;;;1031050;28;3107;-47
2022/08/14 02:29:00;;;;;;;;;;;;;;;;;;1030178;28;1694;-45
2022/08/14 02:29:31;;;;;;;;;;;;;;;;;;1029752;28;1680;-48
2022/08/14 02:30:02;;;;;;;;;;;;;;;;;;1030684;28;1674;-48
2022/08/14 02:30:33;;;;;;;;;;;;;;;;;;1033239;28;1820;-47
2022/08/14 02:31:07;;;;;;;;;;;;;;;;;;1033785;28;1676;-45
2022/08/14 02:31:40;;;;;;;;;;;;;;;;;;1032714;28;3770;-46
2022/08/14 02:32:10;;;;;;;;;;;;;;;;;;1032051;28;3429;-46
2022/08/14 02:32:41;;;;;;;;;;;;;;;;;;1029893;28;1652;-48
2022/08/14 02:33:11;;;;;;;;;;;;;;;;;;1030377;28;1739;-46
2022/08/14 02:33:42;;;;;;;;;;;;;;;;;;1029868;28;1606;-46
2022/08/14 02:34:14;;;;;;;;;;;;;;;;;;1034062;28;1631;-44
2022/08/14 02:34:44;;;;;;;;;;;;;;;;;;1033014;28;1924;-45
2022/08/14 02:35:16;;;;;;;;;;;;;;;;;;1033228;28;1724;-49
2022/08/14 02:35:47;;;;;;;;;;;;;;;;;;1031642;28;2090;-47
2022/08/14 02:36:17;;;;;;;;;;;;;;;;;;1030583;28;1705;-49
2022/08/14 02:36:50;;;;;;;;;;;;;;;;;;1029690;28;1750;-49
2022/08/14 02:37:20;;;;;;;;;;;;;;;;;;1030519;28;1677;-45
2022/08/14 02:37:51;;;;;;;;;;;;;;;;;;1029231;28;2171;-46
2022/08/14 02:38:21;;;;;;;;;;;;;;;;;;1029168;28;3162;-47
2022/08/14 02:38:51;;;;;;;;;;;;;;;;;;1029836;28;1615;-46
2022/08/14 02:39:35;;;;;;;;;;;;;;;;;;1029486;28;3084;-46
2022/08/14 02:40:13;;;;;;;;;;;;;;;;;;1025490;28;1642;-45
2022/08/14 02:40:43;;;;;;;;;;;;;;;;;;1025950;28;1887;-47
2022/08/14 02:41:13;;;;;;;;;;;;;;;;;;1024868;28;3248;-46
2022/08/14 02:41:43;;;;;;;;;;;;;;;;;;1026293;28;4172;-46
2022/08/14 02:42:16;;;;;;;;;;;;;;;;;;1029666;28;1680;-45
2022/08/14 02:42:47;;;;;;;;;;;;;;;;;;1030172;28;1387;-47
2022/08/14 02:43:18;;;;;;;;;;;;;;;;;;1030217;28;2039;-48
2022/08/14 02:43:48;;;;;;;;;;;;;;;;;;1030642;28;1669;-45
2022/08/14 02:44:25;;;;;;;;;;;;;;;;;;1029747;28;2165;-49
2022/08/14 02:44:55;;;;;;;;;;;;;;;;;;1029946;28;1848;-47
2022/08/14 02:45:30;;;;;;;;;;;;;;;;;;1029965;28;2039;-46
2022/08/14 02:46:02;;;;;;;;;;;;;;;;;;1029933;28;1611;-47
2022/08/14 02:46:32;;;;;;;;;;;;;;;;;;1029947;28;1630;-45
2022/08/14 02:47:02;;;;;;;;;;;;;;;;;;1029904;28;1630;-45
2022/08/14 02:47:34;;;;;;;;;;;;;;;;;;1030122;28;1635;-46
2022/08/14 02:48:05;;;;;;;;;;;;;;;;;;1029705;28;2103;-46
2022/08/14 02:48:38;;;;;;;;;;;;;;;;;;1030516;28;1682;-45
2022/08/14 02:49:09;;;;;;;;;;;;;;;;;;1029690;28;1707;-47
2022/08/14 02:49:40;;;;;;;;;;;;;;;;;;1030386;28;1596;-46
2022/08/14 02:50:11;;;;;;;;;;;;;;;;;;1029283;28;2095;-46
2022/08/14 02:50:41;;;;;;;;;;;;;;;;;;1030025;28;1573;-47
2022/08/14 02:51:12;;;;;;;;;;;;;;;;;;1029596;28;2590;-45
2022/08/14 02:51:46;;;;;;;;;;;;;;;;;;1028584;28;4021;-47
2022/08/14 02:52:16;;;;;;;;;;;;;;;;;;1029449;28;2626;-47
2022/08/14 02:52:47;;;;;;;;;;;;;;;;;;1030157;28;1959;-47
2022/08/14 02:53:17;;;;;;;;;;;;;;;;;;1029204;28;1955;-45
2022/08/14 02:53:47;;;;;;;;;;;;;;;;;;1029820;28;1993;-46
2022/08/14 02:54:18;;;;;;;;;;;;;;;;;;1029774;28;1819;-46
2022/08/14 02:54:50;;;;;;;;;;;;;;;;;;1029394;28;1874;-45
2022/08/14 02:55:21;;;;;;;;;;;;;;;;;;1029612;28;1940;-47
2022/08/14 02:55:52;;;;;;;;;;;;;;;;;;1030312;28;1676;-47
2022/08/14 02:56:24;;;;;;;;;;;;;;;;;;1029948;28;2097;-47
2022/08/14 02:56:55;;;;;;;;;;;;;;;;;;1029918;28;1665;-46
2022/08/14 02:57:26;;;;;;;;;;;;;;;;;;1030704;28;1737;-47
2022/08/14 02:57:56;;;;;;;;;;;;;;;;;;1028707;28;2023;-46
2022/08/14 02:58:28;;;;;;;;;;;;;;;;;;1029658;28;1984;-47
2022/08/14 02:59:00;;;;;;;;;;;;;;;;;;1029335;28;1695;-48
2022/08/14 02:59:32;;;;;;;;;;;;;;;;;;1029238;28;3269;-46
2022/08/14 03:00:03;;;;;;;;;;;;;;;;;;1029340;28;2134;-46
2022/08/14 03:00:34;;;;;;;;;;;;;;;;;;1030293;28;4218;-47
2022/08/14 03:01:05;;;;;;;;;;;;;;;;;;1029556;28;2021;-48
2022/08/14 03:01:36;;;;;;;;;;;;;;;;;;1029217;28;3810;-48
2022/08/14 03:02:07;;;;;;;;;;;;;;;;;;1028989;28;1764;-45
2022/08/14 03:02:37;;;;;;;;;;;;;;;;;;1029781;28;2075;-49
2022/08/14 03:03:08;;;;;;;;;;;;;;;;;;1029669;28;1761;-45
2022/08/14 03:03:38;;;;;;;;;;;;;;;;;;1030475;28;1877;-44
2022/08/14 03:04:09;;;;;;;;;;;;;;;;;;1029309;28;1900;-47
2022/08/14 03:04:39;;;;;;;;;;;;;;;;;;1030190;28;1717;-47
2022/08/14 03:05:11;;;;;;;;;;;;;;;;;;1029193;28;2003;-49
2022/08/14 03:05:41;;;;;;;;;;;;;;;;;;1030600;28;1579;-48
2022/08/14 03:06:12;;;;;;;;;;;;;;;;;;1030393;28;1940;-48
2022/08/14 03:06:43;;;;;;;;;;;;;;;;;;1029389;28;1797;-45
2022/08/14 03:07:15;;;;;;;;;;;;;;;;;;1030296;28;1686;-46
2022/08/14 03:07:45;;;;;;;;;;;;;;;;;;1029622;28;1628;-46
2022/08/14 03:08:16;;;;;;;;;;;;;;;;;;1029556;28;1963;-46
2022/08/14 03:08:47;;;;;;;;;;;;;;;;;;1029438;28;2535;-48
2022/08/14 03:09:17;;;;;;;;;;;;;;;;;;1030160;28;1593;-47
2022/08/14 03:09:47;;;;;;;;;;;;;;;;;;1029749;28;1690;-46
2022/08/14 03:10:18;;;;;;;;;;;;;;;;;;1029523;28;1866;-47
2022/08/14 03:10:48;;;;;;;;;;;;;;;;;;1029515;28;3160;-46
2022/08/14 03:11:20;;;;;;;;;;;;;;;;;;1029721;28;1820;-47
2022/08/14 03:11:51;;;;;;;;;;;;;;;;;;1029366;28;4181;-47
2022/08/14 03:12:21;;;;;;;;;;;;;;;;;;1029864;28;1964;-49
2022/08/14 03:12:51;;;;;;;;;;;;;;;;;;1029829;28;1945;-46
2022/08/14 03:13:22;;;;;;;;;;;;;;;;;;1030090;28;1601;-47
2022/08/14 03:13:52;;;;;;;;;;;;;;;;;;1030071;28;1933;-45
2022/08/14 03:14:24;;;;;;;;;;;;;;;;;;1030134;28;1722;-47
2022/08/14 03:14:55;;;;;;;;;;;;;;;;;;1030144;28;1341;-47
2022/08/14 03:15:26;;;;;;;;;;;;;;;;;;1028269;28;1583;-49
2022/08/14 03:15:56;;;;;;;;;;;;;;;;;;1031270;28;1948;-47
2022/08/14 03:16:27;;;;;;;;;;;;;;;;;;1029858;28;1764;-45
2022/08/14 03:16:57;;;;;;;;;;;;;;;;;;1026722;28;1781;-46
2022/08/14 03:17:27;;;;;;;;;;;;;;;;;;1026409;28;1704;-48
2022/08/14 03:17:57;;;;;;;;;;;;;;;;;;1026703;28;2149;-46
2022/08/14 03:18:28;;;;;;;;;;;;;;;;;;1025975;28;2007;-47
2022/08/14 03:18:59;;;;;;;;;;;;;;;;;;1026972;28;1683;-48
2022/08/14 03:19:30;;;;;;;;;;;;;;;;;;1025668;28;1672;-46
2022/08/14 03:20:00;;;;;;;;;;;;;;;;;;1026485;28;1645;-48
2022/08/14 03:20:31;;;;;;;;;;;;;;;;;;1025356;28;2918;-49
2022/08/14 03:21:03;;;;;;;;;;;;;;;;;;1031071;28;2036;-45
2022/08/14 03:21:35;;;;;;;;;;;;;;;;;;1028470;28;3052;-48
2022/08/14 03:22:05;;;;;;;;;;;;;;;;;;1031051;28;1732;-47
2022/08/14 03:22:35;;;;;;;;;;;;;;;;;;1030813;28;3227;-47
2022/08/14 03:23:06;;;;;;;;;;;;;;;;;;1030875;28;1556;-47
2022/08/14 03:23:36;;;;;;;;;;;;;;;;;;1030174;28;1823;-47
2022/08/14 03:24:10;;;;;;;;;;;;;;;;;;1031019;28;1749;-47
2022/08/14 03:24:40;;;;;;;;;;;;;;;;;;1029555;28;1658;-46
2022/08/14 03:25:11;;;;;;;;;;;;;;;;;;1031242;28;1608;-47
2022/08/14 03:25:41;;;;;;;;;;;;;;;;;;1030193;28;1872;-46
2022/08/14 03:26:14;;;;;;;;;;;;;;;;;;1031443;28;1643;-46
2022/08/14 03:26:45;;;;;;;;;;;;;;;;;;1030379;28;1810;-46
2022/08/14 03:27:15;;;;;;;;;;;;;;;;;;1030212;28;1690;-46
2022/08/14 03:27:46;;;;;;;;;;;;;;;;;;1030494;28;1908;-46
2022/08/14 03:28:16;;;;;;;;;;;;;;;;;;1029263;28;3321;-50
2022/08/14 03:28:49;;;;;;;;;;;;;;;;;;1030613;28;3587;-47
2022/08/14 03:29:19;;;;;;;;;;;;;;;;;;1030730;28;1628;-47
2022/08/14 03:29:50;;;;;;;;;;;;;;;;;;1029951;28;1391;-48
2022/08/14 03:30:21;;;;;;;;;;;;;;;;;;1025606;28;3299;-47
2022/08/14 03:30:51;;;;;;;;;;;;;;;;;;1025622;28;3141;-45
2022/08/14 03:31:22;;;;;;;;;;;;;;;;;;1026439;28;1949;-48
2022/08/14 03:31:53;;;;;;;;;;;;;;;;;;1025319;28;4106;-45
2022/08/14 03:32:23;;;;;;;;;;;;;;;;;;1031107;28;1902;-45
2022/08/14 03:32:54;;;;;;;;;;;;;;;;;;1030562;28;1656;-44
2022/08/14 03:33:26;;;;;;;;;;;;;;;;;;1030553;28;1313;-46
2022/08/14 03:33:57;;;;;;;;;;;;;;;;;;1030529;28;1807;-47
2022/08/14 03:34:27;;;;;;;;;;;;;;;;;;1030646;28;1609;-46
2022/08/14 03:35:05;;;;;;;;;;;;;;;;;;1030356;28;1892;-45
2022/08/14 03:35:35;;;;;;;;;;;;;;;;;;1030923;28;1650;-45
2022/08/14 03:36:08;;;;;;;;;;;;;;;;;;1030442;28;1590;-47
2022/08/14 03:36:39;;;;;;;;;;;;;;;;;;1030676;28;1735;-46
2022/08/14 03:37:11;;;;;;;;;;;;;;;;;;1030857;28;2395;-46
2022/08/14 03:37:41;;;;;;;;;;;;;;;;;;1029996;28;1929;-46
2022/08/14 03:38:12;;;;;;;;;;;;;;;;;;1030546;28;1779;-50
2022/08/14 03:38:43;;;;;;;;;;;;;;;;;;1029927;28;1616;-48
2022/08/14 03:39:13;;;;;;;;;;;;;;;;;;1030697;28;1854;-46
2022/08/14 03:39:57;;;;;;;;;;;;;;;;;;1030285;28;1711;-47
2022/08/14 03:40:37;;;;;;;;;;;;;;;;;;1033332;28;3321;-48
2022/08/14 03:41:13;;;;;;;;;;;;;;;;;;1032218;28;3137;-45
2022/08/14 03:41:43;;;;;;;;;;;;;;;;;;1032910;28;3062;-46
2022/08/14 03:42:13;;;;;;;;;;;;;;;;;;1032349;28;1696;-46
2022/08/14 03:42:44;;;;;;;;;;;;;;;;;;1030677;28;2040;-46
2022/08/14 03:43:14;;;;;;;;;;;;;;;;;;1030258;28;2016;-49
2022/08/14 03:43:46;;;;;;;;;;;;;;;;;;1030741;28;1674;-49